• 1
  • 2
  • 1

WebCam

  
Kamera Halle
Kamera Vorfeld

GPS Triangle WM Sports Class

AeroClub Göppingen-Salach e.V.
Ausrichter der Modellflug
GPS Triangle-WM 2020

Wetter EDDS

METAR

EDDS 182320Z 30008KT 9999 FEW015 02/M00 Q1028 =
EDDS 182300Z 1900/1924 28005KT 9999 SCT025 PROB30 TEMPO 1902/1920 1200 SHSN BKN012CB BECMG 1912/1914 34005KT


TAF

EDDS 182300Z 1900/1924 28005KT 9999 SCT025 PROB30 TEMPO 1902/1920 1200 SHSN BKN012CB BECMG 1912/1914 34005KT =


SR/SS

07:05 / 15:58 UTC
(EDSO 19-01-2020)